createdAt,value
2023-03-07T00:01:43.013Z,4.60
2023-03-07T00:04:10.970Z,4.60
2023-03-07T00:06:38.961Z,4.60
2023-03-07T00:09:08.502Z,4.60
2023-03-07T00:11:36.462Z,4.60
2023-03-07T00:14:08.224Z,4.60
2023-03-07T00:16:36.306Z,4.60
2023-03-07T00:19:05.131Z,4.60
2023-03-07T00:21:33.059Z,4.60
2023-03-07T00:24:01.028Z,4.60
2023-03-07T00:26:30.328Z,4.60
2023-03-07T00:28:58.224Z,4.60
2023-03-07T00:31:26.255Z,4.60
2023-03-07T00:33:54.345Z,4.60
2023-03-07T00:36:23.911Z,4.70
2023-03-07T00:38:52.728Z,4.70
2023-03-07T00:41:21.816Z,4.70
2023-03-07T00:43:51.357Z,4.70
2023-03-07T00:46:21.213Z,4.80
2023-03-07T00:48:49.144Z,4.80
2023-03-07T00:51:18.858Z,4.80
2023-03-07T00:53:47.074Z,4.90
2023-03-07T00:56:16.812Z,4.90
2023-03-07T00:58:44.950Z,4.90
2023-03-07T01:01:16.320Z,4.90
2023-03-07T01:03:44.695Z,5.00
2023-03-07T01:06:15.583Z,5.00
2023-03-07T01:08:43.509Z,5.00
2023-03-07T01:11:12.701Z,5.00
2023-03-07T01:13:41.002Z,5.10
2023-03-07T01:16:10.594Z,5.10
2023-03-07T01:18:40.857Z,5.10
2023-03-07T01:21:13.611Z,5.10
2023-03-07T01:23:41.511Z,5.20
2023-03-07T01:26:13.174Z,5.20
2023-03-07T01:28:41.362Z,5.20
2023-03-07T01:31:09.804Z,5.20
2023-03-07T01:33:39.213Z,5.20
2023-03-07T01:36:14.807Z,5.20
2023-03-07T01:38:42.705Z,5.20
2023-03-07T01:41:11.161Z,5.20
2023-03-07T01:43:39.128Z,5.20
2023-03-07T01:46:34.211Z,5.20
2023-03-07T01:49:11.958Z,5.20
2023-03-07T01:51:42.600Z,5.20
2023-03-07T01:54:12.858Z,5.20
2023-03-07T01:56:41.425Z,5.20
2023-03-07T01:59:09.886Z,5.20
2023-03-07T02:01:38.383Z,5.20
2023-03-07T02:04:13.481Z,5.20
2023-03-07T02:06:41.480Z,5.20
2023-03-07T02:09:15.902Z,5.20
2023-03-07T02:11:45.330Z,5.20
2023-03-07T02:14:15.713Z,5.20
2023-03-07T02:16:44.203Z,5.20
2023-03-07T02:19:26.389Z,5.20
2023-03-07T02:22:04.436Z,5.20
2023-03-07T02:24:40.331Z,5.10
2023-03-07T02:27:09.577Z,5.10
2023-03-07T02:29:37.511Z,5.10
2023-03-07T02:32:05.634Z,5.20
2023-03-07T02:34:33.799Z,5.20
2023-03-07T02:37:06.910Z,5.20
2023-03-07T02:39:35.437Z,5.20
2023-03-07T02:42:08.092Z,5.20
2023-03-07T02:44:37.281Z,5.20
2023-03-07T02:47:08.893Z,5.20
2023-03-07T02:49:36.912Z,5.20
2023-03-07T02:52:05.530Z,5.20
2023-03-07T02:54:33.460Z,5.20
2023-03-07T02:57:01.276Z,5.20
2023-03-07T02:59:29.147Z,5.20
2023-03-07T03:01:59.054Z,5.20
2023-03-07T03:04:27.159Z,5.20
2023-03-07T03:06:55.357Z,5.20
2023-03-07T03:09:23.477Z,5.20
2023-03-07T03:11:52.536Z,5.20
2023-03-07T03:14:20.485Z,5.20
2023-03-07T03:16:48.369Z,5.20
2023-03-07T03:19:17.622Z,5.20
2023-03-07T03:21:45.482Z,5.20
2023-03-07T03:24:13.602Z,5.20
2023-03-07T03:26:41.505Z,5.20
2023-03-07T03:29:09.748Z,5.20
2023-03-07T03:31:38.183Z,5.20
2023-03-07T03:34:07.423Z,5.20
2023-03-07T03:36:36.770Z,5.20
2023-03-07T03:39:07.084Z,5.20
2023-03-07T03:41:34.934Z,5.10
2023-03-07T03:44:03.645Z,5.10
2023-03-07T03:46:31.598Z,5.10
2023-03-07T03:48:59.445Z,5.10
2023-03-07T03:51:27.740Z,5.10
2023-03-07T03:53:58.641Z,5.10
2023-03-07T03:56:28.000Z,5.10
2023-03-07T03:58:57.366Z,5.10
2023-03-07T04:01:26.801Z,5.10
2023-03-07T04:03:57.192Z,5.10
2023-03-07T04:06:26.723Z,5.00
2023-03-07T04:08:56.825Z,5.00
2023-03-07T04:11:25.911Z,5.10
2023-03-07T04:13:54.080Z,5.00
2023-03-07T04:16:22.694Z,5.00
2023-03-07T04:18:51.272Z,5.00
2023-03-07T04:21:20.077Z,5.00
2023-03-07T04:23:49.599Z,5.00
2023-03-07T04:26:18.894Z,5.10
2023-03-07T04:28:46.819Z,5.10
2023-03-07T04:31:16.854Z,5.00
2023-03-07T04:33:45.356Z,5.10
2023-03-07T04:36:14.302Z,5.00
2023-03-07T04:38:42.396Z,5.10
2023-03-07T04:41:12.164Z,5.10
2023-03-07T04:43:41.684Z,5.10
2023-03-07T04:46:10.862Z,5.10
2023-03-07T04:48:38.793Z,5.10
2023-03-07T04:51:07.299Z,5.10
2023-03-07T04:53:35.304Z,5.20
2023-03-07T04:56:04.576Z,5.10
2023-03-07T04:58:33.024Z,5.10
2023-03-07T05:01:03.720Z,5.10
2023-03-07T05:03:31.722Z,5.10
2023-03-07T05:06:03.251Z,5.10
2023-03-07T05:08:31.303Z,5.10
2023-03-07T05:10:59.642Z,5.10
2023-03-07T05:13:27.932Z,5.10
2023-03-07T05:15:58.452Z,5.00
2023-03-07T05:18:28.582Z,5.00
2023-03-07T05:20:58.350Z,5.10
2023-03-07T05:23:26.408Z,5.00
2023-03-07T05:25:54.579Z,5.00
2023-03-07T05:28:22.844Z,5.00
2023-03-07T05:30:50.964Z,5.00
2023-03-07T05:33:18.940Z,5.00
2023-03-07T05:35:48.289Z,5.00
2023-03-07T05:38:16.391Z,5.00
2023-03-07T05:40:44.458Z,5.00
2023-03-07T05:43:12.363Z,5.00
2023-03-07T05:45:40.269Z,5.00
2023-03-07T05:48:08.596Z,4.90
2023-03-07T05:50:38.044Z,4.90
2023-03-07T05:53:07.311Z,5.00
2023-03-07T05:55:35.395Z,5.00
2023-03-07T05:58:03.517Z,4.90
2023-03-07T06:00:31.938Z,4.90
2023-03-07T06:03:01.974Z,4.90
2023-03-07T06:05:29.957Z,4.90
2023-03-07T06:07:57.871Z,5.00
2023-03-07T06:10:27.265Z,5.00
2023-03-07T06:12:55.421Z,5.00
2023-03-07T06:15:24.818Z,5.00
2023-03-07T06:17:53.491Z,5.10
2023-03-07T06:20:21.780Z,5.10
2023-03-07T06:22:49.950Z,5.00
2023-03-07T06:25:21.609Z,5.00
2023-03-07T06:27:51.188Z,5.10
2023-03-07T06:30:19.359Z,5.10
2023-03-07T06:32:47.247Z,5.10
2023-03-07T06:35:15.152Z,5.10
2023-03-07T06:37:43.113Z,5.10
2023-03-07T06:40:12.354Z,5.10
2023-03-07T06:42:40.326Z,5.10
2023-03-07T06:45:10.465Z,5.10
2023-03-07T06:47:38.445Z,5.10
2023-03-07T06:50:07.334Z,5.20
2023-03-07T06:52:35.245Z,5.20
2023-03-07T06:55:03.545Z,5.20
2023-03-07T06:57:33.439Z,5.20
2023-03-07T07:00:01.421Z,5.20
2023-03-07T07:02:30.889Z,5.20
2023-03-07T07:05:01.071Z,5.20
2023-03-07T07:07:29.305Z,5.20
2023-03-07T07:09:57.205Z,5.20
2023-03-07T07:12:25.143Z,5.20
2023-03-07T07:14:53.137Z,5.30
2023-03-07T07:17:21.063Z,5.30
2023-03-07T07:19:50.356Z,5.30
2023-03-07T07:22:18.236Z,5.30
2023-03-07T07:24:46.184Z,5.40
2023-03-07T07:27:14.279Z,5.40
2023-03-07T07:29:42.149Z,5.40
2023-03-07T07:32:10.205Z,5.40
2023-03-07T07:34:38.263Z,5.40
2023-03-07T07:37:08.461Z,5.50
2023-03-07T07:39:36.442Z,5.50
2023-03-07T07:42:04.603Z,5.50
2023-03-07T07:44:32.810Z,5.50
2023-03-07T07:47:00.718Z,5.50
2023-03-07T07:49:28.906Z,5.60
2023-03-07T07:51:57.048Z,5.50
2023-03-07T07:54:26.337Z,5.60
2023-03-07T07:56:54.294Z,5.60
2023-03-07T07:59:23.239Z,5.60
2023-03-07T08:01:51.283Z,5.60
2023-03-07T08:04:19.341Z,5.60
2023-03-07T08:06:47.255Z,5.50
2023-03-07T08:09:15.626Z,5.50
2023-03-07T08:11:44.917Z,5.50
2023-03-07T08:14:12.889Z,5.50
2023-03-07T08:16:40.780Z,5.50
2023-03-07T08:19:08.759Z,5.50
2023-03-07T08:21:36.644Z,5.50
2023-03-07T08:24:04.880Z,5.60
2023-03-07T08:26:32.908Z,5.60
2023-03-07T08:29:02.172Z,5.60
2023-03-07T08:31:31.277Z,5.60
2023-03-07T08:33:59.200Z,5.70
2023-03-07T08:36:27.166Z,5.70
2023-03-07T08:38:55.155Z,5.70
2023-03-07T08:41:24.370Z,5.70
2023-03-07T08:43:54.623Z,5.80
2023-03-07T08:46:24.343Z,5.80
2023-03-07T08:48:52.320Z,5.90
2023-03-07T08:51:20.416Z,6.00
2023-03-07T08:53:48.414Z,6.00
2023-03-07T08:56:18.217Z,6.00
2023-03-07T08:58:46.470Z,6.10
2023-03-07T09:01:14.566Z,6.10
2023-03-07T09:03:44.728Z,6.10
2023-03-07T09:06:18.710Z,6.10
2023-03-07T09:08:47.487Z,6.20
2023-03-07T09:11:15.507Z,6.20
2023-03-07T09:13:51.859Z,6.20
2023-03-07T09:16:21.870Z,6.20
2023-03-07T09:18:51.275Z,6.30
2023-03-07T09:21:19.219Z,6.30
2023-03-07T09:23:47.088Z,6.30
2023-03-07T09:26:15.005Z,6.30
2023-03-07T09:28:43.074Z,6.30
2023-03-07T09:31:13.727Z,6.40
2023-03-07T09:33:42.163Z,6.40
2023-03-07T09:36:13.950Z,6.50
2023-03-07T09:38:42.133Z,6.50
2023-03-07T09:41:34.533Z,6.50
2023-03-07T09:44:12.748Z,6.60
2023-03-07T09:46:50.564Z,6.60
2023-03-07T09:49:20.446Z,6.60
2023-03-07T09:51:52.885Z,6.60
2023-03-07T09:54:23.750Z,6.70
2023-03-07T09:56:55.908Z,6.70
2023-03-07T09:59:29.955Z,6.70
2023-03-07T10:02:05.955Z,6.80
2023-03-07T10:04:41.224Z,6.80
2023-03-07T10:07:13.617Z,6.80
2023-03-07T10:09:41.579Z,6.90
2023-03-07T10:12:32.740Z,6.90
2023-03-07T10:15:19.397Z,6.90
2023-03-07T10:18:08.968Z,6.90
2023-03-07T10:20:44.906Z,7.00
2023-03-07T10:23:31.088Z,7.10
2023-03-07T10:26:09.181Z,7.10
2023-03-07T10:28:42.289Z,7.20
2023-03-07T10:31:18.482Z,7.20
2023-03-07T10:33:48.453Z,7.20
2023-03-07T10:36:21.445Z,7.20
2023-03-07T10:39:00.841Z,7.20
2023-03-07T10:41:28.910Z,7.20
2023-03-07T10:43:57.631Z,7.20
2023-03-07T10:46:28.741Z,7.10
2023-03-07T10:49:00.839Z,7.20
2023-03-07T10:51:39.061Z,7.20
2023-03-07T10:54:15.323Z,7.20
2023-03-07T10:57:03.156Z,7.30
2023-03-07T10:59:31.132Z,7.40
2023-03-07T11:02:01.284Z,7.40
2023-03-07T11:04:31.185Z,7.40
2023-03-07T11:07:01.185Z,7.40
2023-03-07T11:09:32.054Z,7.40
2023-03-07T11:12:11.362Z,7.30
2023-03-07T11:14:50.544Z,7.30
2023-03-07T11:17:22.056Z,7.30
2023-03-07T11:19:53.089Z,7.30
2023-03-07T11:22:25.465Z,7.30
2023-03-07T11:25:05.383Z,7.30
2023-03-07T11:27:37.196Z,7.30
2023-03-07T11:30:21.939Z,7.30
2023-03-07T11:33:08.692Z,7.30
2023-03-07T11:36:01.033Z,7.40
2023-03-07T11:38:39.644Z,7.40
2023-03-07T11:41:12.720Z,7.40
2023-03-07T11:43:54.494Z,7.40
2023-03-07T11:46:33.619Z,7.40
2023-03-07T11:49:16.376Z,7.40
2023-03-07T11:51:56.698Z,7.40
2023-03-07T11:54:35.454Z,7.50
2023-03-07T11:57:14.207Z,7.50
2023-03-07T12:00:12.458Z,7.50
2023-03-07T12:03:11.258Z,7.60
2023-03-07T12:05:49.266Z,7.70
2023-03-07T12:08:49.360Z,7.70
2023-03-07T12:11:28.094Z,7.70
2023-03-07T12:14:08.546Z,7.70
2023-03-07T12:16:44.733Z,7.80
2023-03-07T12:19:36.036Z,7.80
2023-03-07T12:22:28.922Z,7.90
2023-03-07T12:25:19.529Z,7.90
2023-03-07T12:27:51.461Z,7.90
2023-03-07T12:30:25.918Z,7.90
2023-03-07T12:32:55.079Z,7.80
2023-03-07T12:35:27.694Z,7.80
2023-03-07T12:38:02.407Z,7.80
2023-03-07T12:40:36.330Z,7.70
2023-03-07T12:43:16.128Z,7.70
2023-03-07T12:45:51.939Z,7.60
2023-03-07T12:48:27.326Z,7.40
2023-03-07T12:50:59.947Z,7.20
2023-03-07T12:53:34.449Z,7.00
2023-03-07T12:56:07.308Z,6.90
2023-03-07T12:58:41.630Z,6.70
2023-03-07T13:01:15.654Z,6.60
2023-03-07T13:03:51.930Z,6.50
2023-03-07T13:06:22.374Z,6.30
2023-03-07T13:08:52.535Z,6.20
2023-03-07T13:11:22.971Z,6.10
2023-03-07T13:13:56.994Z,6.00
2023-03-07T13:16:40.971Z,5.90
2023-03-07T13:19:46.246Z,5.90
2023-03-07T13:22:54.330Z,5.80
2023-03-07T13:25:58.993Z,5.70
2023-03-07T13:28:48.696Z,5.70
2023-03-07T13:31:46.757Z,5.60
2023-03-07T13:34:53.618Z,5.60
2023-03-07T13:37:49.422Z,5.60
2023-03-07T13:40:53.854Z,5.60
2023-03-07T13:43:59.836Z,5.60
2023-03-07T13:46:51.826Z,5.50
2023-03-07T13:49:40.148Z,5.40
2023-03-07T13:52:33.992Z,5.40
2023-03-07T13:55:12.903Z,5.30
2023-03-07T13:57:43.596Z,5.30
2023-03-07T14:00:35.169Z,5.30
2023-03-07T14:03:03.681Z,5.30
2023-03-07T14:05:35.093Z,5.20
2023-03-07T14:08:03.877Z,5.20
2023-03-07T14:10:33.427Z,5.20
2023-03-07T14:13:26.493Z,5.20
2023-03-07T14:16:18.469Z,5.10
2023-03-07T14:18:55.477Z,5.10
2023-03-07T14:21:34.020Z,5.00
2023-03-07T14:24:30.354Z,4.90
2023-03-07T14:27:00.853Z,4.90
2023-03-07T14:29:30.220Z,4.80
2023-03-07T14:32:00.895Z,4.80
2023-03-07T14:34:31.587Z,4.80
2023-03-07T14:37:01.636Z,4.80
2023-03-07T14:39:42.931Z,4.70
2023-03-07T14:42:21.672Z,4.60
2023-03-07T14:45:07.158Z,4.60
2023-03-07T14:47:50.821Z,4.50
2023-03-07T14:50:21.187Z,4.50
2023-03-07T14:52:50.147Z,4.50
2023-03-07T14:55:20.370Z,4.40
2023-03-07T14:57:53.070Z,4.40
2023-03-07T15:00:30.649Z,4.40
2023-03-07T15:03:00.907Z,4.30
2023-03-07T15:05:30.853Z,4.30
2023-03-07T15:07:59.242Z,4.30
2023-03-07T15:10:34.556Z,4.30
2023-03-07T15:13:07.033Z,4.30
2023-03-07T15:15:38.714Z,4.30
2023-03-07T15:18:16.243Z,4.30
2023-03-07T15:20:45.631Z,4.30
2023-03-07T15:23:21.055Z,4.20
2023-03-07T15:25:49.427Z,4.20
2023-03-07T15:28:20.740Z,4.20
2023-03-07T15:30:53.299Z,4.20
2023-03-07T15:33:27.675Z,4.10
2023-03-07T15:36:20.266Z,4.10
2023-03-07T15:38:50.750Z,4.10
2023-03-07T15:41:33.709Z,4.10
2023-03-07T15:44:08.477Z,4.10
2023-03-07T15:46:38.826Z,4.10
2023-03-07T15:49:07.314Z,4.10
2023-03-07T15:51:37.508Z,4.00
2023-03-07T15:54:22.057Z,4.00
2023-03-07T15:56:56.044Z,4.00
2023-03-07T15:59:29.436Z,4.00
2023-03-07T16:01:57.611Z,4.00
2023-03-07T16:04:39.017Z,3.90
2023-03-07T16:07:07.839Z,3.90
2023-03-07T16:09:35.830Z,3.80
2023-03-07T16:12:03.808Z,3.80
2023-03-07T16:14:34.166Z,3.70
2023-03-07T16:17:04.712Z,3.70
2023-03-07T16:19:33.622Z,3.60
2023-03-07T16:22:01.644Z,3.50
2023-03-07T16:24:29.820Z,3.50
2023-03-07T16:26:58.473Z,3.40
2023-03-07T16:29:26.665Z,3.40
2023-03-07T16:31:55.977Z,3.40
2023-03-07T16:34:24.032Z,3.40
2023-03-07T16:36:51.966Z,3.30
2023-03-07T16:39:19.897Z,3.30
2023-03-07T16:41:50.366Z,3.20
2023-03-07T16:44:20.043Z,3.20
2023-03-07T16:46:53.813Z,3.10
2023-03-07T16:49:24.390Z,3.10
2023-03-07T16:52:04.585Z,3.10
2023-03-07T16:54:33.564Z,3.00
2023-03-07T16:57:03.552Z,3.00
2023-03-07T16:59:35.510Z,3.00
2023-03-07T17:02:12.258Z,2.90
2023-03-07T17:04:43.234Z,2.90
2023-03-07T17:07:17.229Z,2.80
2023-03-07T17:09:45.675Z,2.80
2023-03-07T17:12:13.750Z,2.80
2023-03-07T17:14:42.614Z,2.70
2023-03-07T17:17:18.189Z,2.70
2023-03-07T17:19:47.441Z,2.70
2023-03-07T17:22:15.348Z,2.70
2023-03-07T17:24:43.244Z,2.70
2023-03-07T17:27:11.463Z,2.60
2023-03-07T17:29:44.121Z,2.60
2023-03-07T17:32:12.062Z,2.60
2023-03-07T17:34:40.448Z,2.60
2023-03-07T17:37:11.552Z,2.60
2023-03-07T17:39:39.970Z,2.60
2023-03-07T17:42:08.087Z,2.60
2023-03-07T17:44:35.973Z,2.60
2023-03-07T17:47:04.024Z,2.60
2023-03-07T17:49:34.595Z,2.60
2023-03-07T17:52:02.618Z,2.60
2023-03-07T17:54:33.737Z,2.60
2023-03-07T17:57:02.329Z,2.50
2023-03-07T17:59:32.009Z,2.50
2023-03-07T18:02:00.044Z,2.50
2023-03-07T18:04:30.867Z,2.40
2023-03-07T18:06:58.844Z,2.40
2023-03-07T18:09:26.781Z,2.40
2023-03-07T18:11:56.033Z,2.40
2023-03-07T18:14:24.171Z,2.40
2023-03-07T18:16:53.127Z,2.30
2023-03-07T18:19:26.752Z,2.40
2023-03-07T18:21:55.844Z,2.40
2023-03-07T18:24:27.147Z,2.40
2023-03-07T18:26:57.421Z,2.50
2023-03-07T18:29:25.932Z,2.40
2023-03-07T18:31:54.331Z,2.50
2023-03-07T18:34:24.731Z,2.50
2023-03-07T18:36:54.184Z,2.50
2023-03-07T18:39:22.703Z,2.50
2023-03-07T18:41:50.937Z,2.50
2023-03-07T18:44:20.373Z,2.50
2023-03-07T18:46:48.389Z,2.50
2023-03-07T18:49:17.739Z,2.60
2023-03-07T18:51:48.335Z,2.60
2023-03-07T18:54:16.588Z,2.60
2023-03-07T18:56:46.721Z,2.60
2023-03-07T18:59:15.334Z,2.60
2023-03-07T19:01:45.442Z,2.60
2023-03-07T19:04:13.482Z,2.60
2023-03-07T19:06:45.130Z,2.60
2023-03-07T19:09:15.010Z,2.60
2023-03-07T19:11:43.170Z,2.60
2023-03-07T19:14:11.057Z,2.60
2023-03-07T19:16:39.301Z,2.60
2023-03-07T19:19:08.617Z,2.50
2023-03-07T19:21:36.561Z,2.50
2023-03-07T19:24:05.784Z,2.50
2023-03-07T19:26:34.944Z,2.50
2023-03-07T19:29:04.333Z,2.50
2023-03-07T19:31:34.894Z,2.50
2023-03-07T19:34:06.166Z,2.50
2023-03-07T19:36:37.440Z,2.50
2023-03-07T19:39:08.855Z,2.50
2023-03-07T19:41:37.662Z,2.50
2023-03-07T19:44:11.924Z,2.50
2023-03-07T19:46:42.938Z,2.50
2023-03-07T19:49:10.931Z,2.50
2023-03-07T19:51:40.176Z,2.50
2023-03-07T19:54:08.861Z,2.40
2023-03-07T19:56:38.436Z,2.40
2023-03-07T19:59:07.504Z,2.40
2023-03-07T20:01:36.563Z,2.30
2023-03-07T20:04:06.376Z,2.30
2023-03-07T20:06:34.905Z,2.30
2023-03-07T20:09:04.460Z,2.20
2023-03-07T20:11:34.449Z,2.20
2023-03-07T20:14:04.683Z,2.20
2023-03-07T20:16:33.629Z,2.20
2023-03-07T20:19:03.368Z,2.20
2023-03-07T20:21:31.810Z,2.20
2023-03-07T20:24:00.191Z,2.20
2023-03-07T20:26:32.443Z,2.20
2023-03-07T20:29:01.293Z,2.20
2023-03-07T20:31:29.718Z,2.20
2023-03-07T20:33:59.190Z,2.20
2023-03-07T20:36:29.569Z,2.20
2023-03-07T20:38:59.305Z,2.20
2023-03-07T20:41:30.318Z,2.20
2023-03-07T20:44:00.882Z,2.10
2023-03-07T20:46:28.954Z,2.10
2023-03-07T20:48:57.872Z,2.10
2023-03-07T20:51:27.402Z,2.10
2023-03-07T20:53:57.077Z,2.00
2023-03-07T20:56:26.863Z,2.00
2023-03-07T20:58:56.757Z,2.00
2023-03-07T21:01:25.922Z,2.00
2023-03-07T21:03:54.080Z,2.00
2023-03-07T21:06:22.458Z,2.00
2023-03-07T21:08:50.364Z,2.00
2023-03-07T21:11:19.767Z,2.00
2023-03-07T21:13:49.100Z,2.00
2023-03-07T21:16:20.169Z,2.00
2023-03-07T21:18:48.717Z,2.00
2023-03-07T21:21:18.315Z,1.90
2023-03-07T21:23:46.731Z,1.90
2023-03-07T21:26:16.986Z,1.90
2023-03-07T21:28:45.434Z,1.90
2023-03-07T21:31:19.965Z,1.80
2023-03-07T21:33:49.526Z,1.80
2023-03-07T21:36:17.653Z,1.80
2023-03-07T21:38:46.563Z,1.80
2023-03-07T21:41:15.133Z,1.80
2023-03-07T21:43:43.476Z,1.80
2023-03-07T21:46:13.945Z,1.80
2023-03-07T21:48:43.992Z,1.70
2023-03-07T21:51:12.244Z,1.70
2023-03-07T21:53:40.207Z,1.70
2023-03-07T21:56:09.670Z,1.70
2023-03-07T21:58:38.940Z,1.70
2023-03-07T22:01:12.466Z,1.70
2023-03-07T22:03:41.073Z,1.70
2023-03-07T22:06:12.338Z,1.70
2023-03-07T22:08:40.575Z,1.70
2023-03-07T22:11:10.191Z,1.70
2023-03-07T22:13:40.219Z,1.70
2023-03-07T22:16:11.256Z,1.70
2023-03-07T22:18:39.519Z,1.70
2023-03-07T22:21:10.823Z,1.70
2023-03-07T22:23:38.769Z,1.70
2023-03-07T22:26:08.317Z,1.70
2023-03-07T22:28:36.390Z,1.70
2023-03-07T22:31:05.805Z,1.70
2023-03-07T22:33:34.250Z,1.70
2023-03-07T22:36:03.955Z,1.80
2023-03-07T22:38:33.397Z,1.70
2023-03-07T22:41:02.339Z,1.80
2023-03-07T22:43:32.415Z,1.70
2023-03-07T22:46:00.737Z,1.70
2023-03-07T22:48:29.409Z,1.70
2023-03-07T22:50:57.719Z,1.70
2023-03-07T22:53:28.664Z,1.70
2023-03-07T22:55:59.256Z,1.70
2023-03-07T22:58:27.785Z,1.70
2023-03-07T23:00:55.827Z,1.70
2023-03-07T23:03:24.321Z,1.70
2023-03-07T23:05:52.478Z,1.80
2023-03-07T23:08:20.571Z,1.80
2023-03-07T23:10:48.578Z,1.80
2023-03-07T23:13:17.815Z,1.80
2023-03-07T23:15:45.966Z,1.80
2023-03-07T23:18:13.868Z,1.80
2023-03-07T23:20:41.871Z,1.80
2023-03-07T23:23:09.944Z,1.80
2023-03-07T23:25:42.138Z,1.80
2023-03-07T23:28:10.323Z,1.80
2023-03-07T23:30:40.819Z,1.80
2023-03-07T23:33:08.892Z,1.80
2023-03-07T23:35:37.436Z,1.80
2023-03-07T23:38:05.521Z,1.80
2023-03-07T23:40:36.009Z,1.80
2023-03-07T23:43:05.250Z,1.80
2023-03-07T23:45:33.359Z,1.80
2023-03-07T23:48:02.698Z,1.80
2023-03-07T23:50:30.624Z,1.80
2023-03-07T23:52:58.519Z,1.80
2023-03-07T23:55:26.800Z,1.80
2023-03-07T23:57:55.869Z,1.80
